VTBU/UTP METAR and TAF weather

Enter ICAO airport designator
Station Type Date Time Source
VTBU METAR 2019/04/25 01:30 UTC NOAA

VTBU 250130Z 19009KT 8000 FEW020 31/25 Q1009 NOSIG


Station Type Date Time Source
VTBU Decoded METAR 2019/04/25 01:30 UTC NOAA

Rayong, Thailand (VTBU) 12-38N 101-21E 5M
Apr 24, 2019 - 09:30 PM EDT / 2019.04.25 0130 UTC
Wind: from the S (190 degrees) at 10 MPH (9 KT):0
Visibility: 4 mile(s):0
Sky conditions: mostly clear
Temperature: 87 F (31 C)
Heat index: 97.5 F (36.4 C):1
Dew Point: 77 F (25 C)
Relative Humidity: 70%
Pressure (altimeter): 29.80 in. Hg (1009 hPa)
ob: VTBU 250130Z 19009KT 8000 FEW020 31/25 Q1009 NOSIG
cycle: 1

Station Type Date Time Source
VTBU TAF 2019/04/24 18:37 UTC NOAA

TAF VTBU 241700Z 2418/2518 22006KT 8000 FEW020
BECMG 2502/2504 18008KT 9999

Example: see airport list